aviador You're here:

LFRN Decoded Metar

RENNES in FRANCE
Report Time2018-01-21 06:30:00
UTC Time2018-01-21 06:51:01
Flight Rules ifr IFR
WindVRB at 02 kt
Visibility4700 m
Phenomena:Drizzle
Rain
Mist
Clouds:Broken 002 Hf
Overcast 007 Hf
Ceiling700 ft
Temp09°C (ISA -6)
Dew Point09°C (100% RH)
AAT8.1°C
QNH1017 hPa
Density Alt-551 ft
Elevation121 ft
Report Wrong Elevation
Raw Report
LFRN 210630Z AUTO VRB02KT 4700 DZ BR OVC007 09/09 Q1017 TEMPO 1500
RADZ BR BKN002 BECMG 25013KT=

Extra information for LFRN:More info

Metar Taf Metar & Taf Last 4 Metars F.Rules Stats Wind Profile Meteogram Temp Stats Airport Information Weather charts Add Link Nearby VenuesMetar ALERT Operation Metar Decoded Social comments